Terminal Aerodrome Forecast
Issued by NWS Charleston, SC

Current Version | Previous Version | Text Only | Print | Product List | Glossary On
Versions: 1 2 3 4 5 6 7 8 9 10 11 12 13 14 15 16 17 18 19 20 21 22 23 24 25 26 27 28 29 30 31
000
FTUS42 KCHS 261100
TAFCHS
TAF
KCHS 261127Z 2612/2712 25010G16KT P6SM FEW035 SCT200
     FM261700 28017G26KT P6SM BKN040
     FM270000 29013G21KT P6SM SCT050
     FM270600 29010KT P6SM FEW130=

USA.gov is the U.S. government's official web portal to all federal, state and local government web resources and services.